sensor_id;sensor_type;location;lat;lon;timestamp;pressure;altitude;pressure_sealevel;temperature
67758;BMP180;54562;47.620;18.786;2022-10-17T00:04:32;99717.20;;;12.30
67758;BMP180;54562;47.620;18.786;2022-10-17T00:07:41;99713.00;;;12.24
67758;BMP180;54562;47.620;18.786;2022-10-17T00:10:59;99718.40;;;12.20
67758;BMP180;54562;47.620;18.786;2022-10-17T00:14:07;99713.00;;;12.20
67758;BMP180;54562;47.620;18.786;2022-10-17T00:17:15;99711.20;;;12.20
67758;BMP180;54562;47.620;18.786;2022-10-17T00:20:23;99718.20;;;12.20
67758;BMP180;54562;47.620;18.786;2022-10-17T00:23:31;99718.40;;;12.10
67758;BMP180;54562;47.620;18.786;2022-10-17T00:26:39;99717.80;;;12.10
67758;BMP180;54562;47.620;18.786;2022-10-17T00:29:52;99715.00;;;12.00
67758;BMP180;54562;47.620;18.786;2022-10-17T00:33:00;99721.00;;;12.00
67758;BMP180;54562;47.620;18.786;2022-10-17T00:36:11;99718.60;;;11.90
67758;BMP180;54562;47.620;18.786;2022-10-17T00:39:19;99712.40;;;11.90
67758;BMP180;54562;47.620;18.786;2022-10-17T00:42:28;99717.00;;;11.80
67758;BMP180;54562;47.620;18.786;2022-10-17T00:45:36;99713.00;;;11.80
67758;BMP180;54562;47.620;18.786;2022-10-17T00:48:45;99712.00;;;11.74
67758;BMP180;54562;47.620;18.786;2022-10-17T00:51:58;99712.80;;;11.70
67758;BMP180;54562;47.620;18.786;2022-10-17T00:55:13;99711.40;;;11.70
67758;BMP180;54562;47.620;18.786;2022-10-17T00:58:23;99711.80;;;11.62
67758;BMP180;54562;47.620;18.786;2022-10-17T01:01:31;99710.20;;;11.60
67758;BMP180;54562;47.620;18.786;2022-10-17T01:04:43;99705.20;;;11.60
67758;BMP180;54562;47.620;18.786;2022-10-17T01:07:53;99708.60;;;11.60
67758;BMP180;54562;47.620;18.786;2022-10-17T01:11:15;99711.20;;;11.62
67758;BMP180;54562;47.620;18.786;2022-10-17T01:14:42;99717.00;;;11.60
67758;BMP180;54562;47.620;18.786;2022-10-17T01:18:09;99713.80;;;11.60
67758;BMP180;54562;47.620;18.786;2022-10-17T01:21:46;99713.60;;;11.64
67758;BMP180;54562;47.620;18.786;2022-10-17T01:25:25;99709.40;;;11.70
67758;BMP180;54562;47.620;18.786;2022-10-17T01:32:38;99706.00;;;11.68
67758;BMP180;54562;47.620;18.786;2022-10-17T01:35:53;99709.80;;;11.60
67758;BMP180;54562;47.620;18.786;2022-10-17T01:39:26;99710.20;;;11.60
67758;BMP180;54562;47.620;18.786;2022-10-17T01:42:44;99716.00;;;11.60
67758;BMP180;54562;47.620;18.786;2022-10-17T01:46:00;99711.60;;;11.60
67758;BMP180;54562;47.620;18.786;2022-10-17T01:49:12;99711.00;;;11.52
67758;BMP180;54562;47.620;18.786;2022-10-17T01:52:25;99708.00;;;11.50
67758;BMP180;54562;47.620;18.786;2022-10-17T01:55:37;99708.60;;;11.50
67758;BMP180;54562;47.620;18.786;2022-10-17T01:58:51;99706.40;;;11.50
67758;BMP180;54562;47.620;18.786;2022-10-17T02:02:02;99705.20;;;11.50
67758;BMP180;54562;47.620;18.786;2022-10-17T02:05:10;99707.40;;;11.40
67758;BMP180;54562;47.620;18.786;2022-10-17T02:08:28;99710.00;;;11.40
67758;BMP180;54562;47.620;18.786;2022-10-17T02:11:36;99711.20;;;11.38
67758;BMP180;54562;47.620;18.786;2022-10-17T02:14:59;99717.20;;;11.30
67758;BMP180;54562;47.620;18.786;2022-10-17T02:18:28;99708.80;;;11.30
67758;BMP180;54562;47.620;18.786;2022-10-17T02:21:47;99716.60;;;11.20
67758;BMP180;54562;47.620;18.786;2022-10-17T02:25:05;99718.00;;;11.14
67758;BMP180;54562;47.620;18.786;2022-10-17T02:28:27;99721.40;;;11.10
67758;BMP180;54562;47.620;18.786;2022-10-17T02:31:43;99719.80;;;11.10
67758;BMP180;54562;47.620;18.786;2022-10-17T02:34:54;99723.20;;;11.16
67758;BMP180;54562;47.620;18.786;2022-10-17T02:38:08;99722.60;;;11.20
67758;BMP180;54562;47.620;18.786;2022-10-17T02:41:20;99721.20;;;11.20
67758;BMP180;54562;47.620;18.786;2022-10-17T02:44:31;99719.00;;;11.20
67758;BMP180;54562;47.620;18.786;2022-10-17T02:47:53;99726.80;;;11.20
67758;BMP180;54562;47.620;18.786;2022-10-17T02:51:13;99723.60;;;11.20
67758;BMP180;54562;47.620;18.786;2022-10-17T02:54:34;99719.20;;;11.10
67758;BMP180;54562;47.620;18.786;2022-10-17T02:57:50;99722.00;;;11.10
67758;BMP180;54562;47.620;18.786;2022-10-17T03:01:00;99719.80;;;11.10
67758;BMP180;54562;47.620;18.786;2022-10-17T03:04:13;99728.20;;;11.00
67758;BMP180;54562;47.620;18.786;2022-10-17T03:07:21;99730.00;;;10.92
67758;BMP180;54562;47.620;18.786;2022-10-17T03:10:29;99729.40;;;10.90
67758;BMP180;54562;47.620;18.786;2022-10-17T03:13:37;99732.20;;;10.94
67758;BMP180;54562;47.620;18.786;2022-10-17T03:16:45;99732.00;;;10.90
67758;BMP180;54562;47.620;18.786;2022-10-17T03:19:53;99731.80;;;10.90
67758;BMP180;54562;47.620;18.786;2022-10-17T03:23:01;99734.80;;;10.88
67758;BMP180;54562;47.620;18.786;2022-10-17T03:26:10;99737.20;;;10.80
67758;BMP180;54562;47.620;18.786;2022-10-17T03:29:18;99742.40;;;10.80
67758;BMP180;54562;47.620;18.786;2022-10-17T03:32:27;99750.40;;;10.76
67758;BMP180;54562;47.620;18.786;2022-10-17T03:35:38;99756.40;;;10.70
67758;BMP180;54562;47.620;18.786;2022-10-17T03:38:48;99761.40;;;10.70
67758;BMP180;54562;47.620;18.786;2022-10-17T03:41:56;99758.20;;;10.60
67758;BMP180;54562;47.620;18.786;2022-10-17T03:45:05;99757.40;;;10.60
67758;BMP180;54562;47.620;18.786;2022-10-17T03:48:13;99760.80;;;10.60
67758;BMP180;54562;47.620;18.786;2022-10-17T03:51:21;99764.80;;;10.58
67758;BMP180;54562;47.620;18.786;2022-10-17T03:54:29;99764.60;;;10.50
67758;BMP180;54562;47.620;18.786;2022-10-17T03:57:39;99771.40;;;10.50
67758;BMP180;54562;47.620;18.786;2022-10-17T04:00:50;99776.60;;;10.40
67758;BMP180;54562;47.620;18.786;2022-10-17T04:03:59;99779.60;;;10.40
67758;BMP180;54562;47.620;18.786;2022-10-17T04:07:07;99779.80;;;10.30
67758;BMP180;54562;47.620;18.786;2022-10-17T04:10:16;99781.80;;;10.30
67758;BMP180;54562;47.620;18.786;2022-10-17T04:13:24;99783.00;;;10.30
67758;BMP180;54562;47.620;18.786;2022-10-17T04:16:32;99784.40;;;10.30
67758;BMP180;54562;47.620;18.786;2022-10-17T04:19:40;99783.20;;;10.30
67758;BMP180;54562;47.620;18.786;2022-10-17T04:22:48;99783.60;;;10.20
67758;BMP180;54562;47.620;18.786;2022-10-17T04:25:59;99784.00;;;10.20
67758;BMP180;54562;47.620;18.786;2022-10-17T04:29:08;99787.20;;;10.30
67758;BMP180;54562;47.620;18.786;2022-10-17T04:32:16;99788.00;;;10.30
67758;BMP180;54562;47.620;18.786;2022-10-17T04:35:29;99784.60;;;10.30
67758;BMP180;54562;47.620;18.786;2022-10-17T04:38:39;99791.20;;;10.30
67758;BMP180;54562;47.620;18.786;2022-10-17T04:41:51;99796.60;;;10.30
67758;BMP180;54562;47.620;18.786;2022-10-17T04:45:07;99795.80;;;10.30
67758;BMP180;54562;47.620;18.786;2022-10-17T04:48:16;99802.60;;;10.30
67758;BMP180;54562;47.620;18.786;2022-10-17T04:51:28;99798.20;;;10.38
67758;BMP180;54562;47.620;18.786;2022-10-17T04:54:38;99796.40;;;10.40
67758;BMP180;54562;47.620;18.786;2022-10-17T04:57:52;99798.60;;;10.40
67758;BMP180;54562;47.620;18.786;2022-10-17T05:01:10;99798.60;;;10.30
67758;BMP180;54562;47.620;18.786;2022-10-17T05:04:28;99806.80;;;10.30
67758;BMP180;54562;47.620;18.786;2022-10-17T05:07:43;99811.00;;;10.30
67758;BMP180;54562;47.620;18.786;2022-10-17T05:10:57;99811.40;;;10.30
67758;BMP180;54562;47.620;18.786;2022-10-17T05:14:10;99815.80;;;10.30
67758;BMP180;54562;47.620;18.786;2022-10-17T05:17:22;99814.00;;;10.20
67758;BMP180;54562;47.620;18.786;2022-10-17T05:20:33;99825.00;;;10.30
67758;BMP180;54562;47.620;18.786;2022-10-17T05:23:41;99827.40;;;10.30
67758;BMP180;54562;47.620;18.786;2022-10-17T05:26:50;99826.60;;;10.30
67758;BMP180;54562;47.620;18.786;2022-10-17T05:29:58;99829.00;;;10.30
67758;BMP180;54562;47.620;18.786;2022-10-17T05:33:06;99834.80;;;10.30
67758;BMP180;54562;47.620;18.786;2022-10-17T05:36:14;99834.60;;;10.30
67758;BMP180;54562;47.620;18.786;2022-10-17T05:39:23;99838.60;;;10.30
67758;BMP180;54562;47.620;18.786;2022-10-17T05:42:31;99845.60;;;10.30
67758;BMP180;54562;47.620;18.786;2022-10-17T05:45:40;99842.00;;;10.30
67758;BMP180;54562;47.620;18.786;2022-10-17T05:48:47;99845.80;;;10.38
67758;BMP180;54562;47.620;18.786;2022-10-17T05:51:56;99848.80;;;10.40
67758;BMP180;54562;47.620;18.786;2022-10-17T05:55:06;99855.00;;;10.50
67758;BMP180;54562;47.620;18.786;2022-10-17T05:58:14;99860.60;;;10.58
67758;BMP180;54562;47.620;18.786;2022-10-17T06:01:32;99865.60;;;10.66
67758;BMP180;54562;47.620;18.786;2022-10-17T06:04:40;99871.40;;;10.80
67758;BMP180;54562;47.620;18.786;2022-10-17T06:07:51;99876.40;;;11.00
67758;BMP180;54562;47.620;18.786;2022-10-17T06:11:04;99887.20;;;11.20
67758;BMP180;54562;47.620;18.786;2022-10-17T06:14:16;99891.40;;;11.42
67758;BMP180;54562;47.620;18.786;2022-10-17T06:17:23;99896.20;;;11.68
67758;BMP180;54562;47.620;18.786;2022-10-17T06:20:32;99900.20;;;11.90
67758;BMP180;54562;47.620;18.786;2022-10-17T06:23:40;99905.40;;;12.02
67758;BMP180;54562;47.620;18.786;2022-10-17T06:26:48;99911.00;;;12.20
67758;BMP180;54562;47.620;18.786;2022-10-17T06:29:57;99910.60;;;12.28
67758;BMP180;54562;47.620;18.786;2022-10-17T06:33:05;99913.60;;;12.40
67758;BMP180;54562;47.620;18.786;2022-10-17T06:36:15;99913.80;;;12.50
67758;BMP180;54562;47.620;18.786;2022-10-17T06:39:23;99916.00;;;12.60
67758;BMP180;54562;47.620;18.786;2022-10-17T06:42:39;99921.20;;;12.70
67758;BMP180;54562;47.620;18.786;2022-10-17T06:45:49;99924.00;;;12.80
67758;BMP180;54562;47.620;18.786;2022-10-17T06:48:57;99924.60;;;12.98
67758;BMP180;54562;47.620;18.786;2022-10-17T06:52:05;99927.80;;;13.10
67758;BMP180;54562;47.620;18.786;2022-10-17T06:55:13;99935.80;;;13.20
67758;BMP180;54562;47.620;18.786;2022-10-17T06:58:28;99944.40;;;13.34
67758;BMP180;54562;47.620;18.786;2022-10-17T07:01:37;99942.60;;;13.50
67758;BMP180;54562;47.620;18.786;2022-10-17T07:04:52;99945.40;;;13.60
67758;BMP180;54562;47.620;18.786;2022-10-17T07:08:00;99950.80;;;13.78
67758;BMP180;54562;47.620;18.786;2022-10-17T07:11:16;99954.40;;;13.88
67758;BMP180;54562;47.620;18.786;2022-10-17T07:14:25;99959.20;;;14.00
67758;BMP180;54562;47.620;18.786;2022-10-17T07:17:37;99957.60;;;14.00
67758;BMP180;54562;47.620;18.786;2022-10-17T07:20:53;99962.60;;;14.10
67758;BMP180;54562;47.620;18.786;2022-10-17T07:24:01;99967.20;;;14.22
67758;BMP180;54562;47.620;18.786;2022-10-17T07:27:09;99964.80;;;14.30
67758;BMP180;54562;47.620;18.786;2022-10-17T07:30:17;99971.60;;;14.40
67758;BMP180;54562;47.620;18.786;2022-10-17T07:33:26;99974.20;;;14.60
67758;BMP180;54562;47.620;18.786;2022-10-17T07:36:34;99973.00;;;14.70
67758;BMP180;54562;47.620;18.786;2022-10-17T07:39:42;99974.40;;;14.90
67758;BMP180;54562;47.620;18.786;2022-10-17T07:42:50;99975.60;;;15.04
67758;BMP180;54562;47.620;18.786;2022-10-17T07:45:59;99976.80;;;15.20
67758;BMP180;54562;47.620;18.786;2022-10-17T07:49:07;99978.40;;;15.30
67758;BMP180;54562;47.620;18.786;2022-10-17T07:52:16;99979.80;;;15.40
67758;BMP180;54562;47.620;18.786;2022-10-17T07:55:24;99980.60;;;15.50
67758;BMP180;54562;47.620;18.786;2022-10-17T07:58:33;99981.60;;;15.60
67758;BMP180;54562;47.620;18.786;2022-10-17T08:01:44;99987.20;;;15.70
67758;BMP180;54562;47.620;18.786;2022-10-17T08:04:52;99993.20;;;15.80
67758;BMP180;54562;47.620;18.786;2022-10-17T08:08:00;99995.20;;;15.90
67758;BMP180;54562;47.620;18.786;2022-10-17T08:11:10;99996.40;;;16.00
67758;BMP180;54562;47.620;18.786;2022-10-17T08:14:19;99995.20;;;16.10
67758;BMP180;54562;47.620;18.786;2022-10-17T08:17:27;99991.00;;;16.20
67758;BMP180;54562;47.620;18.786;2022-10-17T08:20:35;99996.20;;;16.30
67758;BMP180;54562;47.620;18.786;2022-10-17T08:23:43;99993.40;;;16.40
67758;BMP180;54562;47.620;18.786;2022-10-17T08:26:51;99992.40;;;16.54
67758;BMP180;54562;47.620;18.786;2022-10-17T08:29:59;99992.80;;;16.70
67758;BMP180;54562;47.620;18.786;2022-10-17T08:33:07;99992.80;;;16.80
67758;BMP180;54562;47.620;18.786;2022-10-17T08:36:18;99991.00;;;16.90
67758;BMP180;54562;47.620;18.786;2022-10-17T08:39:26;99996.60;;;17.00
67758;BMP180;54562;47.620;18.786;2022-10-17T08:42:52;100002.20;;;17.10
67758;BMP180;54562;47.620;18.786;2022-10-17T08:46:07;100003.20;;;17.30
67758;BMP180;54562;47.620;18.786;2022-10-17T08:49:24;100001.80;;;17.40
67758;BMP180;54562;47.620;18.786;2022-10-17T08:52:39;100005.60;;;17.50
67758;BMP180;54562;47.620;18.786;2022-10-17T08:55:50;100004.20;;;17.70
67758;BMP180;54562;47.620;18.786;2022-10-17T08:59:00;100005.20;;;17.82
67758;BMP180;54562;47.620;18.786;2022-10-17T09:02:26;99998.20;;;18.00
67758;BMP180;54562;47.620;18.786;2022-10-17T09:05:42;99995.60;;;18.20
67758;BMP180;54562;47.620;18.786;2022-10-17T09:09:07;99997.40;;;18.30
67758;BMP180;54562;47.620;18.786;2022-10-17T09:12:22;99994.20;;;18.48
67758;BMP180;54562;47.620;18.786;2022-10-17T09:15:46;99998.00;;;18.60
67758;BMP180;54562;47.620;18.786;2022-10-17T09:19:06;99998.80;;;18.78
67758;BMP180;54562;47.620;18.786;2022-10-17T09:22:15;99996.80;;;18.90
67758;BMP180;54562;47.620;18.786;2022-10-17T09:25:25;99990.20;;;18.96
67758;BMP180;54562;47.620;18.786;2022-10-17T09:28:38;99987.80;;;19.10
67758;BMP180;54562;47.620;18.786;2022-10-17T09:31:52;99992.80;;;19.16
67758;BMP180;54562;47.620;18.786;2022-10-17T09:35:03;99993.80;;;19.20
67758;BMP180;54562;47.620;18.786;2022-10-17T09:38:18;99992.60;;;19.30
67758;BMP180;54562;47.620;18.786;2022-10-17T09:41:33;99993.40;;;19.38
67758;BMP180;54562;47.620;18.786;2022-10-17T09:45:04;99991.00;;;19.50
67758;BMP180;54562;47.620;18.786;2022-10-17T09:48:27;99993.80;;;19.64
67758;BMP180;54562;47.620;18.786;2022-10-17T09:51:39;99995.60;;;19.70
67758;BMP180;54562;47.620;18.786;2022-10-17T09:54:48;99996.40;;;19.82
67758;BMP180;54562;47.620;18.786;2022-10-17T09:58:00;99996.00;;;19.90
67758;BMP180;54562;47.620;18.786;2022-10-17T10:01:23;99998.40;;;20.00
67758;BMP180;54562;47.620;18.786;2022-10-17T10:04:32;100002.40;;;20.10
67758;BMP180;54562;47.620;18.786;2022-10-17T10:08:11;99995.60;;;20.20
67758;BMP180;54562;47.620;18.786;2022-10-17T10:11:24;99999.40;;;20.26
67758;BMP180;54562;47.620;18.786;2022-10-17T10:14:35;99997.20;;;20.30
67758;BMP180;54562;47.620;18.786;2022-10-17T10:17:45;99995.40;;;20.40
67758;BMP180;54562;47.620;18.786;2022-10-17T10:21:10;99992.60;;;20.50
67758;BMP180;54562;47.620;18.786;2022-10-17T10:24:18;99985.80;;;20.60
67758;BMP180;54562;47.620;18.786;2022-10-17T10:27:31;99986.80;;;20.60
67758;BMP180;54562;47.620;18.786;2022-10-17T10:30:44;99987.80;;;20.60
67758;BMP180;54562;47.620;18.786;2022-10-17T10:33:54;99989.00;;;20.60
67758;BMP180;54562;47.620;18.786;2022-10-17T10:37:13;99990.20;;;20.70
67758;BMP180;54562;47.620;18.786;2022-10-17T10:40:27;99988.00;;;20.70
67758;BMP180;54562;47.620;18.786;2022-10-17T10:43:42;99986.40;;;20.80
67758;BMP180;54562;47.620;18.786;2022-10-17T10:47:06;99981.20;;;20.80
67758;BMP180;54562;47.620;18.786;2022-10-17T10:50:29;99988.60;;;20.90
67758;BMP180;54562;47.620;18.786;2022-10-17T10:53:48;99987.40;;;21.00
67758;BMP180;54562;47.620;18.786;2022-10-17T10:57:01;99986.40;;;21.00
67758;BMP180;54562;47.620;18.786;2022-10-17T11:00:18;99983.80;;;20.90
67758;BMP180;54562;47.620;18.786;2022-10-17T11:03:32;99984.20;;;21.08
67758;BMP180;54562;47.620;18.786;2022-10-17T11:06:44;99990.80;;;21.10
67758;BMP180;54562;47.620;18.786;2022-10-17T11:09:59;99985.00;;;21.10
67758;BMP180;54562;47.620;18.786;2022-10-17T11:13:17;99989.80;;;21.20
67758;BMP180;54562;47.620;18.786;2022-10-17T11:16:34;99982.80;;;21.18
67758;BMP180;54562;47.620;18.786;2022-10-17T11:19:51;99979.40;;;21.20
67758;BMP180;54562;47.620;18.786;2022-10-17T11:23:16;99978.40;;;21.20
67758;BMP180;54562;47.620;18.786;2022-10-17T11:26:30;99978.00;;;21.20
67758;BMP180;54562;47.620;18.786;2022-10-17T11:29:44;99978.60;;;21.16
67758;BMP180;54562;47.620;18.786;2022-10-17T11:32:58;99971.40;;;21.10
67758;BMP180;54562;47.620;18.786;2022-10-17T11:36:10;99978.20;;;21.04
67758;BMP180;54562;47.620;18.786;2022-10-17T11:39:24;99979.20;;;21.00
67758;BMP180;54562;47.620;18.786;2022-10-17T11:42:41;99974.80;;;21.00
67758;BMP180;54562;47.620;18.786;2022-10-17T11:45:58;99974.80;;;20.90
67758;BMP180;54562;47.620;18.786;2022-10-17T11:49:14;99968.20;;;20.80
67758;BMP180;54562;47.620;18.786;2022-10-17T11:52:36;99966.80;;;20.80
67758;BMP180;54562;47.620;18.786;2022-10-17T11:56:02;99970.00;;;20.90
67758;BMP180;54562;47.620;18.786;2022-10-17T11:59:51;99963.40;;;20.80
67758;BMP180;54562;47.620;18.786;2022-10-17T12:03:16;99969.60;;;20.80
67758;BMP180;54562;47.620;18.786;2022-10-17T12:06:48;99965.20;;;20.78
67758;BMP180;54562;47.620;18.786;2022-10-17T12:10:06;99961.60;;;20.80
67758;BMP180;54562;47.620;18.786;2022-10-17T12:13:53;99957.00;;;20.80
67758;BMP180;54562;47.620;18.786;2022-10-17T12:17:02;99957.00;;;20.90
67758;BMP180;54562;47.620;18.786;2022-10-17T12:20:33;99954.40;;;20.84
67758;BMP180;54562;47.620;18.786;2022-10-17T12:23:42;99954.60;;;20.90
67758;BMP180;54562;47.620;18.786;2022-10-17T12:26:58;99949.80;;;20.86
67758;BMP180;54562;47.620;18.786;2022-10-17T12:30:28;99940.80;;;20.90
67758;BMP180;54562;47.620;18.786;2022-10-17T12:33:46;99943.00;;;20.88
67758;BMP180;54562;47.620;18.786;2022-10-17T12:36:55;99939.40;;;20.90
67758;BMP180;54562;47.620;18.786;2022-10-17T12:40:09;99940.80;;;21.00
67758;BMP180;54562;47.620;18.786;2022-10-17T12:43:48;99943.40;;;21.10
67758;BMP180;54562;47.620;18.786;2022-10-17T12:47:39;99942.40;;;21.30
67758;BMP180;54562;47.620;18.786;2022-10-17T12:51:08;99940.40;;;21.40
67758;BMP180;54562;47.620;18.786;2022-10-17T12:54:42;99935.80;;;21.60
67758;BMP180;54562;47.620;18.786;2022-10-17T12:58:13;99940.80;;;21.70
67758;BMP180;54562;47.620;18.786;2022-10-17T13:01:30;99939.00;;;21.70
67758;BMP180;54562;47.620;18.786;2022-10-17T13:04:39;99941.60;;;21.90
67758;BMP180;54562;47.620;18.786;2022-10-17T13:07:49;99934.60;;;22.00
67758;BMP180;54562;47.620;18.786;2022-10-17T13:10:59;99933.60;;;22.10
67758;BMP180;54562;47.620;18.786;2022-10-17T13:14:13;99935.00;;;21.80
67758;BMP180;54562;47.620;18.786;2022-10-17T13:17:29;99938.60;;;21.60
67758;BMP180;54562;47.620;18.786;2022-10-17T13:20:37;99930.00;;;21.60
67758;BMP180;54562;47.620;18.786;2022-10-17T13:23:45;99931.60;;;21.70
67758;BMP180;54562;47.620;18.786;2022-10-17T13:26:56;99925.80;;;21.80
67758;BMP180;54562;47.620;18.786;2022-10-17T13:30:27;99924.40;;;21.80
67758;BMP180;54562;47.620;18.786;2022-10-17T13:33:39;99933.00;;;21.90
67758;BMP180;54562;47.620;18.786;2022-10-17T13:36:49;99934.00;;;21.94
67758;BMP180;54562;47.620;18.786;2022-10-17T13:39:57;99931.20;;;22.00
67758;BMP180;54562;47.620;18.786;2022-10-17T13:43:26;99926.40;;;22.06
67758;BMP180;54562;47.620;18.786;2022-10-17T13:46:35;99929.20;;;21.90
67758;BMP180;54562;47.620;18.786;2022-10-17T13:49:46;99930.40;;;21.90
67758;BMP180;54562;47.620;18.786;2022-10-17T13:53:23;99928.20;;;21.80
67758;BMP180;54562;47.620;18.786;2022-10-17T13:56:31;99926.40;;;21.70
67758;BMP180;54562;47.620;18.786;2022-10-17T13:59:42;99924.40;;;21.60
67758;BMP180;54562;47.620;18.786;2022-10-17T14:02:53;99921.00;;;21.60
67758;BMP180;54562;47.620;18.786;2022-10-17T14:06:13;99923.00;;;21.50
67758;BMP180;54562;47.620;18.786;2022-10-17T14:09:25;99919.20;;;21.30
67758;BMP180;54562;47.620;18.786;2022-10-17T14:12:35;99912.40;;;21.12
67758;BMP180;54562;47.620;18.786;2022-10-17T14:15:47;99912.00;;;20.92
67758;BMP180;54562;47.620;18.786;2022-10-17T14:18:57;99914.00;;;20.70
67758;BMP180;54562;47.620;18.786;2022-10-17T14:22:26;99917.20;;;20.50
67758;BMP180;54562;47.620;18.786;2022-10-17T14:25:37;99916.40;;;20.38
67758;BMP180;54562;47.620;18.786;2022-10-17T14:28:50;99918.80;;;20.20
67758;BMP180;54562;47.620;18.786;2022-10-17T14:32:14;99921.60;;;20.10
67758;BMP180;54562;47.620;18.786;2022-10-17T14:35:23;99914.00;;;20.00
67758;BMP180;54562;47.620;18.786;2022-10-17T14:38:54;99921.20;;;19.80
67758;BMP180;54562;47.620;18.786;2022-10-17T14:42:02;99917.00;;;19.74
67758;BMP180;54562;47.620;18.786;2022-10-17T14:45:16;99916.80;;;19.70
67758;BMP180;54562;47.620;18.786;2022-10-17T14:48:31;99913.20;;;19.60
67758;BMP180;54562;47.620;18.786;2022-10-17T14:51:39;99907.40;;;19.50
67758;BMP180;54562;47.620;18.786;2022-10-17T14:55:22;99913.60;;;19.40
67758;BMP180;54562;47.620;18.786;2022-10-17T14:58:32;99913.80;;;19.30
67758;BMP180;54562;47.620;18.786;2022-10-17T15:01:39;99919.40;;;19.20
67758;BMP180;54562;47.620;18.786;2022-10-17T15:04:47;99915.00;;;19.10
67758;BMP180;54562;47.620;18.786;2022-10-17T15:07:56;99913.00;;;19.00
67758;BMP180;54562;47.620;18.786;2022-10-17T15:11:03;99917.00;;;18.90
67758;BMP180;54562;47.620;18.786;2022-10-17T15:14:11;99922.80;;;18.76
67758;BMP180;54562;47.620;18.786;2022-10-17T15:17:22;99921.20;;;18.60
67758;BMP180;54562;47.620;18.786;2022-10-17T15:20:31;99921.20;;;18.58
67758;BMP180;54562;47.620;18.786;2022-10-17T15:23:38;99920.60;;;18.40
67758;BMP180;54562;47.620;18.786;2022-10-17T15:26:48;99923.40;;;18.30
67758;BMP180;54562;47.620;18.786;2022-10-17T15:29:56;99927.60;;;18.20
67758;BMP180;54562;47.620;18.786;2022-10-17T15:33:04;99929.40;;;18.10
67758;BMP180;54562;47.620;18.786;2022-10-17T15:36:24;99928.80;;;18.00
67758;BMP180;54562;47.620;18.786;2022-10-17T15:39:32;99936.40;;;17.96
67758;BMP180;54562;47.620;18.786;2022-10-17T15:42:40;99934.40;;;17.80
67758;BMP180;54562;47.620;18.786;2022-10-17T15:45:48;99937.40;;;17.70
67758;BMP180;54562;47.620;18.786;2022-10-17T15:49:00;99944.00;;;17.62
67758;BMP180;54562;47.620;18.786;2022-10-17T15:52:10;99948.80;;;17.50
67758;BMP180;54562;47.620;18.786;2022-10-17T15:55:19;99945.20;;;17.34
67758;BMP180;54562;47.620;18.786;2022-10-17T15:58:30;99944.20;;;17.20
67758;BMP180;54562;47.620;18.786;2022-10-17T16:01:42;99944.20;;;17.00
67758;BMP180;54562;47.620;18.786;2022-10-17T16:04:52;99948.40;;;16.80
67758;BMP180;54562;47.620;18.786;2022-10-17T16:08:00;99941.40;;;16.70
67758;BMP180;54562;47.620;18.786;2022-10-17T16:11:10;99940.80;;;16.56
67758;BMP180;54562;47.620;18.786;2022-10-17T16:14:21;99945.80;;;16.40
67758;BMP180;54562;47.620;18.786;2022-10-17T16:17:30;99947.00;;;16.20
67758;BMP180;54562;47.620;18.786;2022-10-17T16:20:38;99942.80;;;16.00
67758;BMP180;54562;47.620;18.786;2022-10-17T16:23:46;99949.60;;;15.80
67758;BMP180;54562;47.620;18.786;2022-10-17T16:26:54;99949.00;;;15.70
67758;BMP180;54562;47.620;18.786;2022-10-17T16:30:04;99951.80;;;15.60
67758;BMP180;54562;47.620;18.786;2022-10-17T16:33:11;99950.80;;;15.50
67758;BMP180;54562;47.620;18.786;2022-10-17T16:36:19;99959.40;;;15.40
67758;BMP180;54562;47.620;18.786;2022-10-17T16:39:27;99963.60;;;15.30
67758;BMP180;54562;47.620;18.786;2022-10-17T16:42:36;99956.20;;;15.24
67758;BMP180;54562;47.620;18.786;2022-10-17T16:45:44;99962.40;;;15.20
67758;BMP180;54562;47.620;18.786;2022-10-17T16:48:52;99964.40;;;15.10
67758;BMP180;54562;47.620;18.786;2022-10-17T16:52:00;99965.40;;;15.00
67758;BMP180;54562;47.620;18.786;2022-10-17T16:55:10;99959.60;;;14.98
67758;BMP180;54562;47.620;18.786;2022-10-17T16:58:16;99965.40;;;14.90
67758;BMP180;54562;47.620;18.786;2022-10-17T17:01:26;99967.40;;;14.86
67758;BMP180;54562;47.620;18.786;2022-10-17T17:04:35;99966.80;;;14.90
67758;BMP180;54562;47.620;18.786;2022-10-17T17:07:43;99972.00;;;15.00
67758;BMP180;54562;47.620;18.786;2022-10-17T17:10:53;99969.80;;;15.00
67758;BMP180;54562;47.620;18.786;2022-10-17T17:14:02;99972.60;;;15.00
67758;BMP180;54562;47.620;18.786;2022-10-17T17:17:11;99972.60;;;15.00
67758;BMP180;54562;47.620;18.786;2022-10-17T17:20:39;99972.60;;;14.90
67758;BMP180;54562;47.620;18.786;2022-10-17T17:23:47;99968.20;;;14.90
67758;BMP180;54562;47.620;18.786;2022-10-17T17:26:57;99969.60;;;14.90
67758;BMP180;54562;47.620;18.786;2022-10-17T17:30:06;99971.60;;;14.90
67758;BMP180;54562;47.620;18.786;2022-10-17T17:33:14;99965.80;;;14.90
67758;BMP180;54562;47.620;18.786;2022-10-17T17:36:24;99970.20;;;14.90
67758;BMP180;54562;47.620;18.786;2022-10-17T17:39:33;99969.00;;;14.90
67758;BMP180;54562;47.620;18.786;2022-10-17T17:42:41;99966.80;;;14.90
67758;BMP180;54562;47.620;18.786;2022-10-17T17:45:49;99967.20;;;14.80
67758;BMP180;54562;47.620;18.786;2022-10-17T17:49:00;99970.20;;;14.80
67758;BMP180;54562;47.620;18.786;2022-10-17T17:52:08;99968.40;;;14.80
67758;BMP180;54562;47.620;18.786;2022-10-17T17:55:16;99971.60;;;14.80
67758;BMP180;54562;47.620;18.786;2022-10-17T17:58:24;99969.40;;;14.90
67758;BMP180;54562;47.620;18.786;2022-10-17T18:01:36;99968.40;;;14.90
67758;BMP180;54562;47.620;18.786;2022-10-17T18:04:45;99966.80;;;14.82
67758;BMP180;54562;47.620;18.786;2022-10-17T18:07:53;99966.60;;;14.80
67758;BMP180;54562;47.620;18.786;2022-10-17T18:11:01;99959.20;;;14.76
67758;BMP180;54562;47.620;18.786;2022-10-17T18:14:13;99962.60;;;14.70
67758;BMP180;54562;47.620;18.786;2022-10-17T18:17:21;99962.80;;;14.70
67758;BMP180;54562;47.620;18.786;2022-10-17T18:20:29;99963.80;;;14.60
67758;BMP180;54562;47.620;18.786;2022-10-17T18:23:40;99960.80;;;14.60